sensor_id;sensor_type;location;lat;lon;timestamp;P1;durP1;ratioP1;P2;durP2;ratioP2
15192;SDS011;7697;51.630;7.484;2023-05-10T00:02:26;3.42;;;2.67;;
15192;SDS011;7697;51.630;7.484;2023-05-10T00:07:28;3.85;;;2.95;;
15192;SDS011;7697;51.630;7.484;2023-05-10T00:12:31;3.13;;;2.85;;
15192;SDS011;7697;51.630;7.484;2023-05-10T00:17:34;5.75;;;3.40;;
15192;SDS011;7697;51.630;7.484;2023-05-10T00:22:35;5.15;;;3.65;;
15192;SDS011;7697;51.630;7.484;2023-05-10T00:27:37;4.05;;;3.30;;
15192;SDS011;7697;51.630;7.484;2023-05-10T00:32:41;3.60;;;2.80;;
15192;SDS011;7697;51.630;7.484;2023-05-10T00:37:43;2.80;;;2.60;;
15192;SDS011;7697;51.630;7.484;2023-05-10T00:42:45;3.10;;;2.80;;
15192;SDS011;7697;51.630;7.484;2023-05-10T00:47:48;2.80;;;2.60;;
15192;SDS011;7697;51.630;7.484;2023-05-10T00:52:52;3.85;;;2.67;;
15192;SDS011;7697;51.630;7.484;2023-05-10T00:57:54;2.60;;;2.25;;
15192;SDS011;7697;51.630;7.484;2023-05-10T01:02:57;2.13;;;2.03;;
15192;SDS011;7697;51.630;7.484;2023-05-10T01:08:00;2.40;;;2.20;;
15192;SDS011;7697;51.630;7.484;2023-05-10T01:13:02;2.45;;;2.25;;
15192;SDS011;7697;51.630;7.484;2023-05-10T01:18:06;2.63;;;2.42;;
15192;SDS011;7697;51.630;7.484;2023-05-10T01:23:12;3.08;;;2.78;;
15192;SDS011;7697;51.630;7.484;2023-05-10T01:28:50;3.20;;;2.90;;
15192;SDS011;7697;51.630;7.484;2023-05-10T01:34:13;3.67;;;2.80;;
15192;SDS011;7697;51.630;7.484;2023-05-10T01:39:22;2.97;;;2.67;;
15192;SDS011;7697;51.630;7.484;2023-05-10T01:44:29;3.47;;;3.17;;
15192;SDS011;7697;51.630;7.484;2023-05-10T01:49:39;3.28;;;2.90;;
15192;SDS011;7697;51.630;7.484;2023-05-10T01:54:54;3.15;;;2.85;;
15192;SDS011;7697;51.630;7.484;2023-05-10T02:00:04;3.72;;;3.42;;
15192;SDS011;7697;51.630;7.484;2023-05-10T02:05:09;3.70;;;3.40;;
15192;SDS011;7697;51.630;7.484;2023-05-10T02:10:14;3.40;;;3.05;;
15192;SDS011;7697;51.630;7.484;2023-05-10T02:15:18;2.60;;;2.40;;
15192;SDS011;7697;51.630;7.484;2023-05-10T02:20:25;2.00;;;1.80;;
15192;SDS011;7697;51.630;7.484;2023-05-10T02:25:27;2.05;;;1.85;;
15192;SDS011;7697;51.630;7.484;2023-05-10T02:30:31;1.95;;;1.75;;
15192;SDS011;7697;51.630;7.484;2023-05-10T02:35:34;1.60;;;1.50;;
15192;SDS011;7697;51.630;7.484;2023-05-10T02:40:37;2.10;;;1.90;;
15192;SDS011;7697;51.630;7.484;2023-05-10T02:45:42;1.52;;;1.42;;
15192;SDS011;7697;51.630;7.484;2023-05-10T02:50:46;1.38;;;1.27;;
15192;SDS011;7697;51.630;7.484;2023-05-10T02:55:52;2.75;;;1.10;;
15192;SDS011;7697;51.630;7.484;2023-05-10T03:00:59;1.80;;;1.10;;
15192;SDS011;7697;51.630;7.484;2023-05-10T03:06:02;1.05;;;0.98;;
15192;SDS011;7697;51.630;7.484;2023-05-10T03:11:09;1.15;;;0.93;;
15192;SDS011;7697;51.630;7.484;2023-05-10T03:16:27;1.65;;;0.95;;
15192;SDS011;7697;51.630;7.484;2023-05-10T03:21:32;1.00;;;0.90;;
15192;SDS011;7697;51.630;7.484;2023-05-10T03:26:35;1.10;;;1.00;;
15192;SDS011;7697;51.630;7.484;2023-05-10T03:31:38;1.00;;;0.95;;
15192;SDS011;7697;51.630;7.484;2023-05-10T03:36:41;1.27;;;1.00;;
15192;SDS011;7697;51.630;7.484;2023-05-10T03:41:43;1.20;;;1.10;;
15192;SDS011;7697;51.630;7.484;2023-05-10T03:46:45;1.80;;;1.35;;
15192;SDS011;7697;51.630;7.484;2023-05-10T03:51:48;2.85;;;1.70;;
15192;SDS011;7697;51.630;7.484;2023-05-10T03:56:50;1.55;;;1.45;;
15192;SDS011;7697;51.630;7.484;2023-05-10T04:01:52;1.70;;;1.60;;
15192;SDS011;7697;51.630;7.484;2023-05-10T04:06:56;2.10;;;1.90;;
15192;SDS011;7697;51.630;7.484;2023-05-10T04:11:58;2.05;;;1.85;;
15192;SDS011;7697;51.630;7.484;2023-05-10T04:17:02;2.40;;;2.20;;
15192;SDS011;7697;51.630;7.484;2023-05-10T04:22:05;2.80;;;2.47;;
15192;SDS011;7697;51.630;7.484;2023-05-10T04:27:07;2.70;;;2.50;;
15192;SDS011;7697;51.630;7.484;2023-05-10T04:32:09;3.13;;;2.83;;
15192;SDS011;7697;51.630;7.484;2023-05-10T04:37:12;3.55;;;3.13;;
15192;SDS011;7697;51.630;7.484;2023-05-10T04:42:14;4.20;;;3.80;;
15192;SDS011;7697;51.630;7.484;2023-05-10T04:47:16;5.43;;;4.80;;
15192;SDS011;7697;51.630;7.484;2023-05-10T04:52:19;5.95;;;5.25;;
15192;SDS011;7697;51.630;7.484;2023-05-10T04:57:21;7.03;;;5.65;;
15192;SDS011;7697;51.630;7.484;2023-05-10T05:02:23;8.52;;;6.75;;
15192;SDS011;7697;51.630;7.484;2023-05-10T05:07:26;11.57;;;8.73;;
15192;SDS011;7697;51.630;7.484;2023-05-10T05:12:30;13.82;;;10.60;;
15192;SDS011;7697;51.630;7.484;2023-05-10T05:17:32;14.45;;;11.45;;
15192;SDS011;7697;51.630;7.484;2023-05-10T05:22:36;15.02;;;11.50;;
15192;SDS011;7697;51.630;7.484;2023-05-10T05:27:38;16.13;;;13.70;;
15192;SDS011;7697;51.630;7.484;2023-05-10T05:32:40;18.35;;;14.80;;
15192;SDS011;7697;51.630;7.484;2023-05-10T05:37:43;19.58;;;15.15;;
15192;SDS011;7697;51.630;7.484;2023-05-10T05:42:45;20.92;;;16.02;;
15192;SDS011;7697;51.630;7.484;2023-05-10T05:47:47;23.95;;;17.90;;
15192;SDS011;7697;51.630;7.484;2023-05-10T05:52:50;19.75;;;15.75;;
15192;SDS011;7697;51.630;7.484;2023-05-10T05:57:52;22.15;;;17.90;;
15192;SDS011;7697;51.630;7.484;2023-05-10T06:02:54;23.38;;;16.30;;
15192;SDS011;7697;51.630;7.484;2023-05-10T06:07:58;20.92;;;16.67;;
15192;SDS011;7697;51.630;7.484;2023-05-10T06:13:01;22.75;;;17.67;;
15192;SDS011;7697;51.630;7.484;2023-05-10T06:18:03;19.95;;;16.13;;
15192;SDS011;7697;51.630;7.484;2023-05-10T06:23:07;21.73;;;17.88;;
15192;SDS011;7697;51.630;7.484;2023-05-10T06:28:08;25.10;;;19.80;;
15192;SDS011;7697;51.630;7.484;2023-05-10T06:33:10;28.42;;;20.67;;
15192;SDS011;7697;51.630;7.484;2023-05-10T06:38:13;24.15;;;18.20;;
15192;SDS011;7697;51.630;7.484;2023-05-10T06:43:15;22.90;;;18.33;;
15192;SDS011;7697;51.630;7.484;2023-05-10T06:48:17;24.20;;;18.27;;
15192;SDS011;7697;51.630;7.484;2023-05-10T06:53:20;27.48;;;20.35;;
15192;SDS011;7697;51.630;7.484;2023-05-10T06:58:22;26.10;;;19.83;;
15192;SDS011;7697;51.630;7.484;2023-05-10T07:03:24;28.33;;;22.35;;
15192;SDS011;7697;51.630;7.484;2023-05-10T07:08:28;35.38;;;25.27;;
15192;SDS011;7697;51.630;7.484;2023-05-10T07:13:30;29.27;;;22.33;;
15192;SDS011;7697;51.630;7.484;2023-05-10T07:18:32;25.58;;;20.95;;
15192;SDS011;7697;51.630;7.484;2023-05-10T07:23:36;23.63;;;19.48;;
15192;SDS011;7697;51.630;7.484;2023-05-10T07:28:37;23.83;;;19.45;;
15192;SDS011;7697;51.630;7.484;2023-05-10T07:33:39;25.48;;;21.25;;
15192;SDS011;7697;51.630;7.484;2023-05-10T07:38:43;30.10;;;22.67;;
15192;SDS011;7697;51.630;7.484;2023-05-10T07:43:44;28.00;;;23.45;;
15192;SDS011;7697;51.630;7.484;2023-05-10T07:48:46;26.38;;;22.15;;
15192;SDS011;7697;51.630;7.484;2023-05-10T07:53:49;26.65;;;19.63;;
15192;SDS011;7697;51.630;7.484;2023-05-10T07:58:51;22.40;;;18.58;;
15192;SDS011;7697;51.630;7.484;2023-05-10T08:03:53;20.83;;;17.27;;
15192;SDS011;7697;51.630;7.484;2023-05-10T08:08:56;26.23;;;20.98;;
15192;SDS011;7697;51.630;7.484;2023-05-10T08:13:58;20.65;;;17.92;;
15192;SDS011;7697;51.630;7.484;2023-05-10T08:19:00;21.23;;;16.33;;
15192;SDS011;7697;51.630;7.484;2023-05-10T08:24:04;24.00;;;18.67;;
15192;SDS011;7697;51.630;7.484;2023-05-10T08:29:06;29.73;;;22.10;;
15192;SDS011;7697;51.630;7.484;2023-05-10T08:34:08;26.85;;;23.30;;
15192;SDS011;7697;51.630;7.484;2023-05-10T08:39:11;30.15;;;25.67;;
15192;SDS011;7697;51.630;7.484;2023-05-10T08:44:13;24.27;;;21.67;;
15192;SDS011;7697;51.630;7.484;2023-05-10T08:49:18;25.27;;;22.33;;
15192;SDS011;7697;51.630;7.484;2023-05-10T08:54:23;27.15;;;23.25;;
15192;SDS011;7697;51.630;7.484;2023-05-10T08:59:26;27.88;;;24.05;;
15192;SDS011;7697;51.630;7.484;2023-05-10T09:04:29;25.35;;;22.58;;
15192;SDS011;7697;51.630;7.484;2023-05-10T09:09:33;34.28;;;26.75;;
15192;SDS011;7697;51.630;7.484;2023-05-10T09:14:36;30.92;;;25.42;;
15192;SDS011;7697;51.630;7.484;2023-05-10T09:19:39;31.23;;;25.95;;
15192;SDS011;7697;51.630;7.484;2023-05-10T09:24:43;26.48;;;21.83;;
15192;SDS011;7697;51.630;7.484;2023-05-10T09:29:45;25.55;;;21.20;;
15192;SDS011;7697;51.630;7.484;2023-05-10T09:34:47;25.15;;;21.73;;
15192;SDS011;7697;51.630;7.484;2023-05-10T09:39:52;27.02;;;23.35;;
15192;SDS011;7697;51.630;7.484;2023-05-10T09:44:59;26.83;;;23.85;;
15192;SDS011;7697;51.630;7.484;2023-05-10T09:50:02;31.50;;;26.27;;
15192;SDS011;7697;51.630;7.484;2023-05-10T09:55:06;28.17;;;22.60;;
15192;SDS011;7697;51.630;7.484;2023-05-10T10:00:09;21.08;;;16.38;;
15192;SDS011;7697;51.630;7.484;2023-05-10T10:05:12;17.85;;;13.18;;
15192;SDS011;7697;51.630;7.484;2023-05-10T10:10:16;19.08;;;13.00;;
15192;SDS011;7697;51.630;7.484;2023-05-10T10:15:18;18.90;;;14.57;;
15192;SDS011;7697;51.630;7.484;2023-05-10T10:20:21;18.42;;;13.30;;
15192;SDS011;7697;51.630;7.484;2023-05-10T10:25:26;16.45;;;13.32;;
15192;SDS011;7697;51.630;7.484;2023-05-10T10:30:29;16.00;;;12.82;;
15192;SDS011;7697;51.630;7.484;2023-05-10T10:35:35;14.40;;;11.93;;
15192;SDS011;7697;51.630;7.484;2023-05-10T10:40:39;16.90;;;12.63;;
15192;SDS011;7697;51.630;7.484;2023-05-10T10:45:41;13.68;;;11.40;;
15192;SDS011;7697;51.630;7.484;2023-05-10T10:50:43;12.38;;;11.07;;
15192;SDS011;7697;51.630;7.484;2023-05-10T10:55:47;18.73;;;13.57;;
15192;SDS011;7697;51.630;7.484;2023-05-10T11:00:50;14.27;;;12.63;;
15192;SDS011;7697;51.630;7.484;2023-05-10T11:06:09;18.35;;;13.23;;
15192;SDS011;7697;51.630;7.484;2023-05-10T11:11:13;16.98;;;13.15;;
15192;SDS011;7697;51.630;7.484;2023-05-10T11:16:16;18.67;;;14.75;;
15192;SDS011;7697;51.630;7.484;2023-05-10T11:21:19;20.92;;;16.20;;
15192;SDS011;7697;51.630;7.484;2023-05-10T11:26:23;18.10;;;13.65;;
15192;SDS011;7697;51.630;7.484;2023-05-10T11:31:26;20.63;;;15.32;;
15192;SDS011;7697;51.630;7.484;2023-05-10T11:36:28;20.30;;;15.65;;
15192;SDS011;7697;51.630;7.484;2023-05-10T11:41:34;19.98;;;16.13;;
15192;SDS011;7697;51.630;7.484;2023-05-10T11:46:36;16.00;;;13.50;;
15192;SDS011;7697;51.630;7.484;2023-05-10T11:51:38;15.27;;;13.25;;
15192;SDS011;7697;51.630;7.484;2023-05-10T11:56:43;15.93;;;13.52;;
15192;SDS011;7697;51.630;7.484;2023-05-10T12:01:45;16.42;;;14.43;;
15192;SDS011;7697;51.630;7.484;2023-05-10T12:06:47;19.05;;;17.05;;
15192;SDS011;7697;51.630;7.484;2023-05-10T12:11:50;28.73;;;22.83;;
15192;SDS011;7697;51.630;7.484;2023-05-10T12:16:57;23.70;;;21.10;;
15192;SDS011;7697;51.630;7.484;2023-05-10T12:21:59;23.42;;;17.25;;
15192;SDS011;7697;51.630;7.484;2023-05-10T12:27:05;18.30;;;15.00;;
15192;SDS011;7697;51.630;7.484;2023-05-10T12:32:09;15.05;;;13.02;;
15192;SDS011;7697;51.630;7.484;2023-05-10T12:37:11;10.68;;;9.15;;
15192;SDS011;7697;51.630;7.484;2023-05-10T12:42:15;12.60;;;10.10;;
15192;SDS011;7697;51.630;7.484;2023-05-10T12:47:17;10.38;;;8.55;;
15192;SDS011;7697;51.630;7.484;2023-05-10T12:52:19;10.23;;;8.70;;
15192;SDS011;7697;51.630;7.484;2023-05-10T12:57:22;8.95;;;8.05;;
15192;SDS011;7697;51.630;7.484;2023-05-10T13:02:25;10.48;;;7.40;;
15192;SDS011;7697;51.630;7.484;2023-05-10T13:07:26;8.68;;;7.50;;
15192;SDS011;7697;51.630;7.484;2023-05-10T13:12:29;8.23;;;6.93;;
15192;SDS011;7697;51.630;7.484;2023-05-10T13:17:31;9.98;;;8.68;;
15192;SDS011;7697;51.630;7.484;2023-05-10T13:22:33;9.40;;;8.38;;
15192;SDS011;7697;51.630;7.484;2023-05-10T13:27:36;12.63;;;8.75;;
15192;SDS011;7697;51.630;7.484;2023-05-10T13:32:38;8.38;;;7.00;;
15192;SDS011;7697;51.630;7.484;2023-05-10T13:37:40;8.18;;;6.60;;
15192;SDS011;7697;51.630;7.484;2023-05-10T13:42:43;11.05;;;9.55;;
15192;SDS011;7697;51.630;7.484;2023-05-10T13:47:44;9.77;;;8.82;;
15192;SDS011;7697;51.630;7.484;2023-05-10T13:52:46;12.98;;;11.68;;
15192;SDS011;7697;51.630;7.484;2023-05-10T13:57:49;15.02;;;13.52;;
15192;SDS011;7697;51.630;7.484;2023-05-10T14:02:51;12.32;;;11.18;;
15192;SDS011;7697;51.630;7.484;2023-05-10T14:07:55;11.60;;;10.50;;
15192;SDS011;7697;51.630;7.484;2023-05-10T14:12:58;11.27;;;10.18;;
15192;SDS011;7697;51.630;7.484;2023-05-10T14:18:00;10.73;;;9.63;;
15192;SDS011;7697;51.630;7.484;2023-05-10T14:23:02;10.18;;;9.18;;
15192;SDS011;7697;51.630;7.484;2023-05-10T14:28:05;11.68;;;10.48;;
15192;SDS011;7697;51.630;7.484;2023-05-10T14:33:07;9.60;;;8.65;;
15192;SDS011;7697;51.630;7.484;2023-05-10T14:38:08;6.70;;;6.05;;
15192;SDS011;7697;51.630;7.484;2023-05-10T14:43:12;6.25;;;5.28;;
15192;SDS011;7697;51.630;7.484;2023-05-10T14:48:13;5.47;;;4.80;;
15192;SDS011;7697;51.630;7.484;2023-05-10T14:53:32;5.10;;;4.60;;
15192;SDS011;7697;51.630;7.484;2023-05-10T14:58:34;4.80;;;4.35;;
15192;SDS011;7697;51.630;7.484;2023-05-10T15:03:36;4.75;;;4.25;;
15192;SDS011;7697;51.630;7.484;2023-05-10T15:08:39;7.88;;;6.00;;
15192;SDS011;7697;51.630;7.484;2023-05-10T15:13:41;7.78;;;5.40;;
15192;SDS011;7697;51.630;7.484;2023-05-10T15:18:43;5.72;;;5.05;;
15192;SDS011;7697;51.630;7.484;2023-05-10T15:23:46;5.13;;;4.50;;
15192;SDS011;7697;51.630;7.484;2023-05-10T15:28:48;4.32;;;3.30;;
15192;SDS011;7697;51.630;7.484;2023-05-10T15:33:49;4.90;;;3.78;;
15192;SDS011;7697;51.630;7.484;2023-05-10T15:38:52;3.55;;;3.10;;
15192;SDS011;7697;51.630;7.484;2023-05-10T15:43:54;3.90;;;3.25;;
15192;SDS011;7697;51.630;7.484;2023-05-10T15:48:56;4.05;;;3.30;;
15192;SDS011;7697;51.630;7.484;2023-05-10T15:53:59;5.18;;;3.17;;
15192;SDS011;7697;51.630;7.484;2023-05-10T15:59:01;4.35;;;3.75;;
15192;SDS011;7697;51.630;7.484;2023-05-10T16:04:05;5.28;;;4.38;;
15192;SDS011;7697;51.630;7.484;2023-05-10T16:09:09;5.13;;;4.15;;
15192;SDS011;7697;51.630;7.484;2023-05-10T16:14:10;5.45;;;4.88;;
15192;SDS011;7697;51.630;7.484;2023-05-10T16:19:12;4.95;;;4.45;;
15192;SDS011;7697;51.630;7.484;2023-05-10T16:24:16;5.57;;;4.70;;
15192;SDS011;7697;51.630;7.484;2023-05-10T16:29:18;7.28;;;6.20;;
15192;SDS011;7697;51.630;7.484;2023-05-10T16:34:19;5.88;;;5.05;;
15192;SDS011;7697;51.630;7.484;2023-05-10T16:39:24;7.65;;;6.10;;
15192;SDS011;7697;51.630;7.484;2023-05-10T16:44:26;5.28;;;4.45;;
15192;SDS011;7697;51.630;7.484;2023-05-10T16:49:28;4.60;;;4.18;;
15192;SDS011;7697;51.630;7.484;2023-05-10T16:54:31;5.22;;;4.63;;
15192;SDS011;7697;51.630;7.484;2023-05-10T16:59:33;8.60;;;5.65;;
15192;SDS011;7697;51.630;7.484;2023-05-10T17:04:35;6.32;;;5.07;;
15192;SDS011;7697;51.630;7.484;2023-05-10T17:09:38;5.38;;;4.60;;
15192;SDS011;7697;51.630;7.484;2023-05-10T17:14:40;5.30;;;4.63;;
15192;SDS011;7697;51.630;7.484;2023-05-10T17:19:43;5.18;;;4.25;;
15192;SDS011;7697;51.630;7.484;2023-05-10T17:24:46;5.10;;;4.50;;
15192;SDS011;7697;51.630;7.484;2023-05-10T17:29:48;5.70;;;4.93;;
15192;SDS011;7697;51.630;7.484;2023-05-10T17:34:50;5.05;;;4.20;;
15192;SDS011;7697;51.630;7.484;2023-05-10T17:39:53;3.75;;;3.17;;
15192;SDS011;7697;51.630;7.484;2023-05-10T17:44:55;5.65;;;4.50;;
15192;SDS011;7697;51.630;7.484;2023-05-10T17:49:57;3.35;;;3.05;;
15192;SDS011;7697;51.630;7.484;2023-05-10T17:55:00;4.03;;;3.60;;
15192;SDS011;7697;51.630;7.484;2023-05-10T18:00:02;4.28;;;3.85;;
15192;SDS011;7697;51.630;7.484;2023-05-10T18:05:05;5.70;;;4.10;;
15192;SDS011;7697;51.630;7.484;2023-05-10T18:10:10;4.15;;;3.63;;
15192;SDS011;7697;51.630;7.484;2023-05-10T18:15:12;4.32;;;3.92;;
15192;SDS011;7697;51.630;7.484;2023-05-10T18:20:14;3.72;;;3.33;;
15192;SDS011;7697;51.630;7.484;2023-05-10T18:25:17;3.65;;;3.35;;
15192;SDS011;7697;51.630;7.484;2023-05-10T18:30:19;4.75;;;4.35;;
15192;SDS011;7697;51.630;7.484;2023-05-10T18:35:21;6.28;;;5.07;;
15192;SDS011;7697;51.630;7.484;2023-05-10T18:40:25;6.95;;;4.85;;
15192;SDS011;7697;51.630;7.484;2023-05-10T18:45:27;9.73;;;5.88;;
15192;SDS011;7697;51.630;7.484;2023-05-10T18:50:29;8.38;;;5.68;;
15192;SDS011;7697;51.630;7.484;2023-05-10T18:55:33;8.50;;;5.82;;
15192;SDS011;7697;51.630;7.484;2023-05-10T19:00:35;8.68;;;6.57;;
15192;SDS011;7697;51.630;7.484;2023-05-10T19:05:37;8.45;;;5.05;;
15192;SDS011;7697;51.630;7.484;2023-05-10T19:10:40;5.78;;;5.13;;
15192;SDS011;7697;51.630;7.484;2023-05-10T19:15:42;7.35;;;6.18;;
15192;SDS011;7697;51.630;7.484;2023-05-10T19:20:44;7.00;;;5.75;;
15192;SDS011;7697;51.630;7.484;2023-05-10T19:25:47;6.38;;;5.70;;
15192;SDS011;7697;51.630;7.484;2023-05-10T19:30:51;5.75;;;5.13;;
15192;SDS011;7697;51.630;7.484;2023-05-10T19:35:53;5.95;;;5.35;;
15192;SDS011;7697;51.630;7.484;2023-05-10T19:40:58;6.60;;;5.97;;
15192;SDS011;7697;51.630;7.484;2023-05-10T19:46:01;6.93;;;6.22;;
15192;SDS011;7697;51.630;7.484;2023-05-10T19:51:04;7.63;;;6.32;;
15192;SDS011;7697;51.630;7.484;2023-05-10T19:56:07;7.10;;;6.15;;
15192;SDS011;7697;51.630;7.484;2023-05-10T20:01:10;6.18;;;5.57;;
15192;SDS011;7697;51.630;7.484;2023-05-10T20:06:11;6.00;;;5.43;;
15192;SDS011;7697;51.630;7.484;2023-05-10T20:11:16;7.15;;;6.45;;
15192;SDS011;7697;51.630;7.484;2023-05-10T20:16:18;6.40;;;5.78;;
15192;SDS011;7697;51.630;7.484;2023-05-10T20:21:20;7.32;;;6.50;;
15192;SDS011;7697;51.630;7.484;2023-05-10T20:26:24;6.40;;;5.80;;
15192;SDS011;7697;51.630;7.484;2023-05-10T20:31:26;7.05;;;5.85;;
15192;SDS011;7697;51.630;7.484;2023-05-10T20:36:28;7.00;;;6.30;;
15192;SDS011;7697;51.630;7.484;2023-05-10T20:41:31;7.43;;;6.60;;
15192;SDS011;7697;51.630;7.484;2023-05-10T20:46:35;7.07;;;6.38;;
15192;SDS011;7697;51.630;7.484;2023-05-10T20:51:37;8.15;;;7.38;;
15192;SDS011;7697;51.630;7.484;2023-05-10T20:56:40;7.60;;;6.90;;
15192;SDS011;7697;51.630;7.484;2023-05-10T21:01:42;7.93;;;7.10;;
15192;SDS011;7697;51.630;7.484;2023-05-10T21:06:44;8.10;;;7.28;;
15192;SDS011;7697;51.630;7.484;2023-05-10T21:11:47;8.02;;;7.18;;
15192;SDS011;7697;51.630;7.484;2023-05-10T21:16:49;11.23;;;8.07;;
15192;SDS011;7697;51.630;7.484;2023-05-10T21:21:51;7.90;;;7.15;;
15192;SDS011;7697;51.630;7.484;2023-05-10T21:26:56;7.85;;;7.07;;
15192;SDS011;7697;51.630;7.484;2023-05-10T21:31:58;7.93;;;7.13;;
15192;SDS011;7697;51.630;7.484;2023-05-10T21:37:00;8.52;;;7.68;;
15192;SDS011;7697;51.630;7.484;2023-05-10T21:42:03;8.95;;;7.57;;
15192;SDS011;7697;51.630;7.484;2023-05-10T21:47:05;8.07;;;7.38;;
15192;SDS011;7697;51.630;7.484;2023-05-10T21:52:07;12.73;;;7.88;;
15192;SDS011;7697;51.630;7.484;2023-05-10T21:57:10;9.75;;;8.75;;
15192;SDS011;7697;51.630;7.484;2023-05-10T22:02:14;10.30;;;9.20;;
15192;SDS011;7697;51.630;7.484;2023-05-10T22:07:16;9.73;;;8.30;;
15192;SDS011;7697;51.630;7.484;2023-05-10T22:12:19;9.85;;;8.63;;
15192;SDS011;7697;51.630;7.484;2023-05-10T22:17:21;9.05;;;8.15;;
15192;SDS011;7697;51.630;7.484;2023-05-10T22:22:23;8.85;;;8.05;;
15192;SDS011;7697;51.630;7.484;2023-05-10T22:27:26;9.02;;;8.15;;
15192;SDS011;7697;51.630;7.484;2023-05-10T22:32:28;10.40;;;8.55;;
15192;SDS011;7697;51.630;7.484;2023-05-10T22:37:31;9.57;;;8.63;;
15192;SDS011;7697;51.630;7.484;2023-05-10T22:42:34;9.77;;;8.88;;
15192;SDS011;7697;51.630;7.484;2023-05-10T22:47:37;9.70;;;8.65;;
15192;SDS011;7697;51.630;7.484;2023-05-10T22:52:39;8.93;;;8.00;;
15192;SDS011;7697;51.630;7.484;2023-05-10T22:57:42;8.77;;;7.88;;
15192;SDS011;7697;51.630;7.484;2023-05-10T23:02:44;8.98;;;8.07;;
15192;SDS011;7697;51.630;7.484;2023-05-10T23:07:45;9.35;;;8.40;;
15192;SDS011;7697;51.630;7.484;2023-05-10T23:12:53;10.50;;;9.40;;
15192;SDS011;7697;51.630;7.484;2023-05-10T23:17:56;10.65;;;9.55;;
15192;SDS011;7697;51.630;7.484;2023-05-10T23:23:00;9.63;;;8.70;;
15192;SDS011;7697;51.630;7.484;2023-05-10T23:28:03;10.15;;;9.15;;
15192;SDS011;7697;51.630;7.484;2023-05-10T23:33:05;10.55;;;9.13;;
15192;SDS011;7697;51.630;7.484;2023-05-10T23:38:08;11.00;;;9.85;;
15192;SDS011;7697;51.630;7.484;2023-05-10T23:43:14;9.80;;;8.80;;
15192;SDS011;7697;51.630;7.484;2023-05-10T23:48:16;10.60;;;9.50;;
15192;SDS011;7697;51.630;7.484;2023-05-10T23:53:18;11.40;;;10.25;;
15192;SDS011;7697;51.630;7.484;2023-05-10T23:58:22;11.02;;;9.45;;
